Time;durP1;ratioP1;P1;durP2;ratioP2;P2;SDS_P1;SDS_P2;PMS_P1;PMS_P2;Temp;Humidity;BMP_temperature;BMP_pressure;BME280_temperature;BME280_humidity;BME280_pressure;Samples;Min_cycle;Max_cycle;Signal;HPM_P1;HPM_P2
2021/05/09 00:01:00;;;;;;;2.47;2.27;;;15.40;75.30;;;;;;5075204;28;20460;-67
2021/05/09 00:03:28;;;;;;;4.23;2.50;;;15.40;75.50;;;;;;5074684;28;20525;-67
2021/05/09 00:05:55;;;;;;;3.63;2.70;;;15.40;75.50;;;;;;5074749;28;20484;-67
2021/05/09 00:08:21;;;;;;;4.30;3.50;;;15.30;75.30;;;;;;5075095;28;20433;-67
2021/05/09 00:10:47;;;;;;;3.40;2.60;;;15.30;75.20;;;;;;5075147;28;20464;-67
2021/05/09 00:13:14;;;;;;;5.73;2.57;;;15.40;75.40;;;;;;5074925;28;20444;-67
2021/05/09 00:15:42;;;;;;;2.53;2.30;;;15.30;75.00;;;;;;5074550;28;20946;-67
2021/05/09 00:18:08;;;;;;;2.80;2.27;;;15.30;75.30;;;;;;5074801;28;20456;-67
2021/05/09 00:20:35;;;;;;;3.40;2.50;;;15.30;75.80;;;;;;5074655;28;20448;-67
2021/05/09 00:23:01;;;;;;;3.43;2.70;;;15.20;75.70;;;;;;5074907;28;20480;-67
2021/05/09 00:25:27;;;;;;;6.10;3.20;;;15.20;76.30;;;;;;5074653;28;20444;-68
2021/05/09 00:27:53;;;;;;;3.90;3.00;;;15.20;76.20;;;;;;5074299;28;20999;-67
2021/05/09 00:30:21;;;;;;;5.67;2.70;;;15.10;76.10;;;;;;5074566;28;20453;-67
2021/05/09 00:32:47;;;;;;;4.10;2.53;;;15.10;76.80;;;;;;5074468;28;20444;-67
2021/05/09 00:35:14;;;;;;;3.30;2.67;;;15.10;76.80;;;;;;5074419;28;20452;-67
2021/05/09 00:37:41;;;;;;;3.27;2.97;;;15.10;76.40;;;;;;5074381;28;20452;-67
2021/05/09 00:40:08;;;;;;;3.87;2.80;;;15.00;76.90;;;;;;5074347;28;20502;-67
2021/05/09 00:42:35;;;;;;;3.90;2.90;;;15.00;76.70;;;;;;5074122;28;20485;-67
2021/05/09 00:45:01;;;;;;;4.90;2.70;;;14.90;77.00;;;;;;5073977;28;20498;-67
2021/05/09 00:47:29;;;;;;;4.37;2.53;;;14.90;76.90;;;;;;5073930;28;20950;-67
2021/05/09 00:49:55;;;;;;;3.27;2.97;;;14.90;77.10;;;;;;5074107;28;20569;-67
2021/05/09 00:52:22;;;;;;;4.80;3.10;;;14.80;76.80;;;;;;5074059;28;20876;-67
2021/05/09 00:54:52;;;;;;;3.00;2.70;;;14.80;77.60;;;;;;5074639;28;20499;-67
2021/05/09 00:57:20;;;;;;;3.80;2.87;;;14.80;77.50;;;;;;5073978;28;20449;-67
2021/05/09 00:59:50;;;;;;;3.80;2.70;;;14.70;78.20;;;;;;5073687;28;20935;-67
2021/05/09 01:02:17;;;;;;;4.00;2.90;;;14.70;78.20;;;;;;5073454;28;20974;-67
2021/05/09 01:04:45;;;;;;;2.43;2.33;;;14.60;78.40;;;;;;5073877;28;20447;-67
2021/05/09 01:07:12;;;;;;;4.30;2.90;;;14.60;78.30;;;;;;5073855;28;20445;-67
2021/05/09 01:09:38;;;;;;;4.30;3.13;;;14.50;78.60;;;;;;5073858;28;20479;-67
2021/05/09 01:12:05;;;;;;;3.40;3.10;;;14.50;78.10;;;;;;5073392;28;20830;-67
2021/05/09 01:14:32;;;;;;;3.00;2.80;;;14.50;78.90;;;;;;5072824;28;21004;-67
2021/05/09 01:16:58;;;;;;;3.97;3.63;;;14.50;79.30;;;;;;5073671;28;20451;-67
2021/05/09 01:19:24;;;;;;;4.63;2.90;;;14.40;79.70;;;;;;5073714;28;20444;-67
2021/05/09 01:21:51;;;;;;;3.80;2.70;;;14.40;79.40;;;;;;5073577;28;20514;-67
2021/05/09 01:24:18;;;;;;;3.57;3.27;;;14.30;80.10;;;;;;5073534;28;20484;-67
2021/05/09 01:26:44;;;;;;;3.20;2.90;;;14.30;79.60;;;;;;5073617;28;20822;-67
2021/05/09 01:29:10;;;;;;;3.30;3.00;;;14.30;80.40;;;;;;5073570;28;20449;-67
2021/05/09 01:31:37;;;;;;;3.63;3.30;;;14.30;79.90;;;;;;5073610;28;20464;-67
2021/05/09 01:34:04;;;;;;;3.20;2.90;;;14.20;80.70;;;;;;5073564;28;20463;-67
2021/05/09 01:36:30;;;;;;;2.90;2.70;;;14.20;80.50;;;;;;5073599;28;20444;-67
2021/05/09 01:38:57;;;;;;;3.93;3.17;;;14.20;80.20;;;;;;5073252;28;20992;-67
2021/05/09 01:41:23;;;;;;;2.67;2.47;;;14.20;80.10;;;;;;5073131;28;21004;-67
2021/05/09 01:43:49;;;;;;;4.57;2.80;;;14.20;80.00;;;;;;5073422;28;20472;-67
2021/05/09 01:46:15;;;;;;;2.50;2.30;;;14.30;79.60;;;;;;5073122;28;21044;-67
2021/05/09 01:48:42;;;;;;;4.27;2.57;;;14.20;80.50;;;;;;5073403;28;20472;-67
2021/05/09 01:51:08;;;;;;;3.20;2.80;;;14.20;80.40;;;;;;5073027;28;20480;-67
2021/05/09 01:53:34;;;;;;;3.43;3.17;;;14.20;79.70;;;;;;5073354;28;20437;-67
2021/05/09 01:56:01;;;;;;;2.93;2.70;;;14.20;80.20;;;;;;5073346;28;20816;-67
2021/05/09 01:58:28;;;;;;;3.47;2.50;;;14.20;79.50;;;;;;5073387;28;20437;-67
2021/05/09 02:00:54;;;;;;;4.53;3.10;;;14.30;79.90;;;;;;5072909;28;21039;-67
2021/05/09 02:03:20;;;;;;;3.80;3.47;;;14.30;79.80;;;;;;5073185;28;20480;-67
2021/05/09 02:05:46;;;;;;;3.40;3.00;;;14.30;79.40;;;;;;5073273;28;20807;-67
2021/05/09 02:08:13;;;;;;;2.80;2.53;;;14.30;78.80;;;;;;5073238;28;20451;-67
2021/05/09 02:10:39;;;;;;;3.83;3.10;;;14.30;78.40;;;;;;5073128;28;20864;-67
2021/05/09 02:13:06;;;;;;;3.37;3.03;;;14.40;78.90;;;;;;5072887;28;20789;-67
2021/05/09 02:15:32;;;;;;;3.30;2.80;;;14.40;79.10;;;;;;5073162;28;20501;-67
2021/05/09 02:17:58;;;;;;;3.10;2.53;;;14.40;79.10;;;;;;5073399;28;20440;-67
2021/05/09 02:20:25;;;;;;;3.43;3.10;;;14.40;79.00;;;;;;5073038;28;20444;-67
2021/05/09 02:22:51;;;;;;;3.10;2.80;;;14.40;78.80;;;;;;5072713;28;20998;-67
2021/05/09 02:25:17;;;;;;;3.07;2.63;;;14.40;78.50;;;;;;5072962;28;20824;-67
2021/05/09 02:27:44;;;;;;;5.83;2.83;;;14.40;78.70;;;;;;5076468;28;21017;-67
2021/05/09 02:30:12;;;;;;;3.80;2.90;;;14.40;77.90;;;;;;5076839;28;20452;-67
2021/05/09 02:32:38;;;;;;;3.10;2.90;;;14.40;78.10;;;;;;5076725;28;20800;-67
2021/05/09 02:35:05;;;;;;;4.03;3.10;;;14.40;78.10;;;;;;5076770;28;20448;-67
2021/05/09 02:37:32;;;;;;;3.90;3.47;;;14.40;78.10;;;;;;5076763;28;20429;-67
2021/05/09 02:39:58;;;;;;;4.37;3.03;;;14.40;78.00;;;;;;5076686;28;20449;-67
2021/05/09 02:42:24;;;;;;;3.33;3.03;;;14.40;78.00;;;;;;5076568;28;20495;-67
2021/05/09 02:44:51;;;;;;;3.73;2.77;;;14.40;78.10;;;;;;5076575;28;20477;-67
2021/05/09 02:47:28;;;;;;;3.10;2.83;;;14.40;78.20;;;;;;5076494;28;20448;-67
2021/05/09 02:49:55;;;;;;;6.20;3.63;;;14.40;78.20;;;;;;5076097;28;20930;-67
2021/05/09 02:52:21;;;;;;;3.53;2.70;;;14.30;77.90;;;;;;5076102;28;20460;-67
2021/05/09 02:54:48;;;;;;;3.50;2.63;;;14.30;78.30;;;;;;5076413;28;20452;-67
2021/05/09 02:57:15;;;;;;;4.73;3.40;;;14.30;78.50;;;;;;5076355;28;20460;-67
2021/05/09 02:59:41;;;;;;;3.60;3.27;;;14.30;78.60;;;;;;5076287;28;20516;-67
2021/05/09 03:02:07;;;;;;;3.40;3.10;;;14.30;78.10;;;;;;5076180;28;20461;-67
2021/05/09 03:04:35;;;;;;;3.20;3.00;;;14.30;77.80;;;;;;5076130;28;20483;-67
2021/05/09 03:07:01;;;;;;;3.63;3.10;;;14.30;77.90;;;;;;5076133;28;20452;-67
2021/05/09 03:09:27;;;;;;;4.23;2.97;;;14.30;78.50;;;;;;5076160;28;20445;-67
2021/05/09 03:11:54;;;;;;;3.30;3.00;;;14.20;78.20;;;;;;5076010;28;20464;-67
2021/05/09 03:14:20;;;;;;;3.40;3.10;;;14.30;78.10;;;;;;5076021;28;20453;-67
2021/05/09 03:16:47;;;;;;;4.10;2.80;;;14.30;78.30;;;;;;5075982;28;20444;-67
2021/05/09 03:19:13;;;;;;;3.80;3.00;;;14.30;77.90;;;;;;5075964;28;20483;-67
2021/05/09 03:21:41;;;;;;;4.13;3.03;;;14.30;77.60;;;;;;5075869;28;20465;-67
2021/05/09 03:24:09;;;;;;;6.23;2.90;;;14.30;77.60;;;;;;5075803;28;20843;-67
2021/05/09 03:26:35;;;;;;;4.90;3.10;;;14.30;77.60;;;;;;5075538;28;20436;-67
2021/05/09 03:29:01;;;;;;;4.30;3.90;;;14.30;77.30;;;;;;5075737;28;20448;-67
2021/05/09 03:31:27;;;;;;;6.23;3.17;;;14.30;76.80;;;;;;5075676;28;20469;-67
2021/05/09 03:33:54;;;;;;;4.03;3.60;;;14.30;76.80;;;;;;5075731;28;20441;-67
2021/05/09 03:36:20;;;;;;;6.83;3.23;;;14.30;76.40;;;;;;5075423;28;20903;-67
2021/05/09 03:38:47;;;;;;;4.47;3.10;;;14.20;76.30;;;;;;5074729;28;20475;-67
2021/05/09 03:41:14;;;;;;;4.83;3.50;;;14.20;76.30;;;;;;5075497;28;20880;-67
2021/05/09 03:43:40;;;;;;;4.43;3.73;;;14.20;76.20;;;;;;5075417;28;20484;-67
2021/05/09 03:46:06;;;;;;;4.53;3.53;;;14.10;75.90;;;;;;5075499;28;20806;-67
2021/05/09 03:48:32;;;;;;;6.20;4.00;;;14.10;76.10;;;;;;5075439;28;20445;-67
2021/05/09 03:50:59;;;;;;;8.73;5.07;;;14.00;76.10;;;;;;5075107;28;20480;-67
2021/05/09 03:53:27;;;;;;;4.50;3.13;;;14.00;76.30;;;;;;5075323;28;20776;-67
2021/05/09 03:55:54;;;;;;;5.73;3.90;;;13.90;76.30;;;;;;5074937;28;20886;-67
2021/05/09 03:58:20;;;;;;;4.63;4.13;;;13.90;75.90;;;;;;5075219;28;20445;-67
2021/05/09 04:00:47;;;;;;;7.53;4.33;;;13.80;76.10;;;;;;5075129;28;20468;-67
2021/05/09 04:03:23;;;;;;;8.40;4.30;;;13.80;76.40;;;;;;5075034;28;20488;-67
2021/05/09 04:05:51;;;;;;;5.27;4.33;;;13.80;76.50;;;;;;5075086;28;20447;-67
2021/05/09 04:08:18;;;;;;;6.30;5.33;;;13.80;76.50;;;;;;5075020;28;20526;-67
2021/05/09 04:10:45;;;;;;;4.43;4.03;;;13.80;76.70;;;;;;5074928;28;20469;-67
2021/05/09 04:13:12;;;;;;;6.00;4.60;;;13.80;77.00;;;;;;5074798;28;20449;-67
2021/05/09 04:15:38;;;;;;;4.60;4.20;;;13.80;77.00;;;;;;5074851;28;20448;-67
2021/05/09 04:18:05;;;;;;;6.53;4.90;;;13.80;77.10;;;;;;5074801;28;20475;-67
2021/05/09 04:20:31;;;;;;;6.77;3.70;;;13.80;77.00;;;;;;5074707;28;20457;-67
2021/05/09 04:23:13;;;;;;;3.73;3.40;;;13.80;77.10;;;;;;5074679;28;20480;-67
2021/05/09 04:25:41;;;;;;;5.77;4.23;;;13.80;77.20;;;;;;5074389;28;20964;-67
2021/05/09 04:28:08;;;;;;;4.30;3.83;;;13.80;77.30;;;;;;5074568;28;20448;-67
2021/05/09 04:30:35;;;;;;;4.37;3.77;;;13.80;77.30;;;;;;5074543;28;20847;-67
2021/05/09 04:33:03;;;;;;;3.40;3.13;;;13.90;77.60;;;;;;5074494;28;20463;-67
2021/05/09 04:35:30;;;;;;;4.57;3.93;;;13.90;77.60;;;;;;5074486;28;20490;-67
2021/05/09 04:37:56;;;;;;;3.73;3.27;;;13.90;77.60;;;;;;5074424;28;20475;-67
2021/05/09 04:40:23;;;;;;;5.10;4.30;;;13.90;77.60;;;;;;5074674;28;20445;-67
2021/05/09 04:42:49;;;;;;;4.40;4.00;;;14.00;77.60;;;;;;5074012;28;20448;-67
2021/05/09 04:45:16;;;;;;;5.23;4.27;;;14.00;77.60;;;;;;5074480;28;20456;-67
2021/05/09 04:47:43;;;;;;;6.30;4.80;;;14.00;77.30;;;;;;5074854;28;20448;-67
2021/05/09 04:50:11;;;;;;;5.10;3.90;;;14.10;77.60;;;;;;5074147;28;20490;-67
2021/05/09 04:52:37;;;;;;;7.70;4.37;;;14.10;77.30;;;;;;5074206;28;20465;-67
2021/05/09 04:55:04;;;;;;;4.87;3.93;;;14.20;77.20;;;;;;5073935;28;21014;-67
2021/05/09 04:57:32;;;;;;;4.53;4.10;;;14.20;77.40;;;;;;5074272;28;20471;-67
2021/05/09 04:59:58;;;;;;;3.93;3.63;;;14.30;77.40;;;;;;5074188;28;20452;-67
2021/05/09 05:02:25;;;;;;;5.07;4.17;;;14.30;77.10;;;;;;5074667;28;20464;-67
2021/05/09 05:04:52;;;;;;;4.77;3.80;;;14.30;76.70;;;;;;5074190;28;20489;-67
2021/05/09 05:07:18;;;;;;;4.10;3.70;;;14.40;76.60;;;;;;5074211;28;20539;-67
2021/05/09 05:09:44;;;;;;;4.73;3.23;;;14.40;76.70;;;;;;5073947;28;20578;-67
2021/05/09 05:12:11;;;;;;;4.60;3.70;;;14.50;76.40;;;;;;5073728;28;20469;-67
2021/05/09 05:14:37;;;;;;;4.20;3.40;;;14.50;76.30;;;;;;5073773;28;20844;-67
2021/05/09 05:17:05;;;;;;;6.17;3.90;;;14.50;76.10;;;;;;5073697;28;20445;-67
2021/05/09 05:19:31;;;;;;;4.30;3.80;;;14.50;75.80;;;;;;5073743;28;20452;-67
2021/05/09 05:21:58;;;;;;;4.20;3.77;;;14.40;75.50;;;;;;5073319;28;21051;-67
2021/05/09 05:24:25;;;;;;;5.70;3.60;;;14.50;75.70;;;;;;5073340;28;21017;-67
2021/05/09 05:26:51;;;;;;;4.03;3.63;;;14.50;75.60;;;;;;5073695;28;20536;-67
2021/05/09 05:29:17;;;;;;;3.60;3.30;;;14.50;75.60;;;;;;5073328;28;20448;-67
2021/05/09 05:31:45;;;;;;;3.87;3.53;;;14.50;75.40;;;;;;5073536;28;20469;-67
2021/05/09 05:34:11;;;;;;;6.03;3.63;;;14.60;75.60;;;;;;5073603;28;20448;-67
2021/05/09 05:36:38;;;;;;;3.90;3.60;;;14.60;75.40;;;;;;5073533;28;20448;-67
2021/05/09 05:39:06;;;;;;;4.90;4.40;;;14.60;75.40;;;;;;5073208;28;20797;-67
2021/05/09 05:41:32;;;;;;;3.57;3.27;;;14.70;75.50;;;;;;5073423;28;20468;-67
2021/05/09 05:43:59;;;;;;;4.07;3.67;;;14.70;75.60;;;;;;5073394;28;20468;-67
2021/05/09 05:46:27;;;;;;;4.00;3.70;;;14.80;75.30;;;;;;5073415;28;20454;-67
2021/05/09 05:48:53;;;;;;;3.90;3.60;;;14.80;75.20;;;;;;5073370;28;20483;-67
2021/05/09 05:51:20;;;;;;;4.73;4.33;;;14.90;75.00;;;;;;5073090;28;21116;-67
2021/05/09 05:53:46;;;;;;;5.17;4.07;;;15.00;75.00;;;;;;5073416;28;20444;-67
2021/05/09 05:56:13;;;;;;;6.83;3.90;;;15.00;75.30;;;;;;5073353;28;20452;-67
2021/05/09 05:58:40;;;;;;;4.00;3.60;;;15.10;75.30;;;;;;5073360;28;20445;-67
2021/05/09 06:01:06;;;;;;;4.30;3.90;;;15.20;74.90;;;;;;5074235;28;20475;-67
2021/05/09 06:03:32;;;;;;;4.67;4.27;;;15.30;74.00;;;;;;5077104;28;20483;-67
2021/05/09 06:05:58;;;;;;;4.83;4.10;;;15.40;73.80;;;;;;5077404;28;20436;-67
2021/05/09 06:08:25;;;;;;;4.30;3.90;;;15.50;73.80;;;;;;5077517;28;20448;-68
2021/05/09 06:10:51;;;;;;;3.00;2.77;;;15.60;74.10;;;;;;5076910;28;20472;-67
2021/05/09 06:13:22;;;;;;;4.47;3.70;;;15.60;73.20;;;;;;5077806;28;20838;-67
2021/05/09 06:15:49;;;;;;;5.43;3.57;;;15.70;72.60;;;;;;5076941;28;20903;-68
2021/05/09 06:18:15;;;;;;;3.70;3.40;;;15.80;72.40;;;;;;5077162;28;20448;-68
2021/05/09 06:20:41;;;;;;;3.80;3.40;;;15.90;72.00;;;;;;5077055;28;20448;-68
2021/05/09 06:23:09;;;;;;;3.60;3.30;;;16.00;71.80;;;;;;5077035;28;20464;-67
2021/05/09 06:25:36;;;;;;;5.00;3.37;;;16.10;72.30;;;;;;5077279;28;20515;-67
2021/05/09 06:28:02;;;;;;;4.43;4.03;;;16.20;71.00;;;;;;5076950;28;20447;-67
2021/05/09 06:30:29;;;;;;;4.17;3.77;;;16.30;71.30;;;;;;5076765;28;20440;-68
2021/05/09 06:32:56;;;;;;;3.10;2.80;;;16.40;71.30;;;;;;5076925;28;20864;-68
2021/05/09 06:35:22;;;;;;;4.70;3.27;;;16.60;71.40;;;;;;5076783;28;20448;-67
2021/05/09 06:37:51;;;;;;;3.13;2.93;;;16.70;70.60;;;;;;5076633;28;20445;-68
2021/05/09 06:40:18;;;;;;;4.00;3.20;;;16.80;69.70;;;;;;5076446;28;20524;-67
2021/05/09 06:42:44;;;;;;;3.27;2.97;;;16.90;69.50;;;;;;5076306;28;20838;-67
2021/05/09 06:45:16;;;;;;;3.77;2.90;;;17.10;69.40;;;;;;5076356;28;20460;-67
2021/05/09 06:47:43;;;;;;;3.90;3.43;;;17.20;70.10;;;;;;5077124;28;20437;-67
2021/05/09 06:50:10;;;;;;;3.47;3.17;;;17.30;68.80;;;;;;5076388;28;20961;-67
2021/05/09 06:52:36;;;;;;;2.87;2.57;;;17.40;68.50;;;;;;5076418;28;20521;-68
2021/05/09 06:55:03;;;;;;;3.00;2.80;;;17.60;68.50;;;;;;5076501;28;20436;-68
2021/05/09 06:57:30;;;;;;;2.80;2.60;;;17.70;68.00;;;;;;5076352;28;20792;-68
2021/05/09 06:59:56;;;;;;;2.77;2.57;;;17.90;67.70;;;;;;5076295;28;20440;-67
2021/05/09 07:02:22;;;;;;;7.87;2.90;;;18.10;66.80;;;;;;5076358;28;20464;-68
2021/05/09 07:04:49;;;;;;;3.63;2.77;;;18.30;66.50;;;;;;5075846;28;20460;-68
2021/05/09 07:07:15;;;;;;;3.63;3.33;;;18.40;65.30;;;;;;5075837;28;20527;-68
2021/05/09 07:09:41;;;;;;;2.97;2.10;;;18.60;65.10;;;;;;5076180;28;20452;-68
2021/05/09 07:12:08;;;;;;;3.50;2.33;;;18.70;64.80;;;;;;5075205;28;20986;-67
2021/05/09 07:14:34;;;;;;;6.60;2.33;;;18.70;62.70;;;;;;5075418;28;20441;-67
2021/05/09 07:17:01;;;;;;;6.90;2.27;;;18.80;62.50;;;;;;5075746;28;20954;-67
2021/05/09 07:19:28;;;;;;;5.07;2.27;;;18.80;62.20;;;;;;5075714;28;20464;-67
2021/05/09 07:21:57;;;;;;;2.70;2.23;;;18.70;62.60;;;;;;5075907;28;20465;-67
2021/05/09 07:24:23;;;;;;;2.73;2.17;;;18.80;62.30;;;;;;5075502;28;20978;-67
2021/05/09 07:26:50;;;;;;;2.20;1.90;;;18.90;62.00;;;;;;5075529;28;20449;-67
2021/05/09 07:29:16;;;;;;;5.13;3.07;;;19.10;61.50;;;;;;5075400;28;20459;-68
2021/05/09 07:31:42;;;;;;;2.60;2.20;;;19.20;61.00;;;;;;5075372;28;20469;-67
2021/05/09 07:34:09;;;;;;;2.30;1.80;;;19.40;60.80;;;;;;5075700;28;20441;-67
2021/05/09 07:36:36;;;;;;;4.47;1.73;;;19.50;60.00;;;;;;5075687;28;20505;-67
2021/05/09 07:39:04;;;;;;;8.43;2.37;;;19.70;59.80;;;;;;5075330;28;21012;-67
2021/05/09 07:41:30;;;;;;;2.33;2.13;;;19.90;59.30;;;;;;5075187;28;21013;-67
2021/05/09 07:43:57;;;;;;;2.97;1.80;;;20.10;58.90;;;;;;5075444;28;20475;-67
2021/05/09 07:46:23;;;;;;;2.00;1.70;;;20.20;58.50;;;;;;5075178;28;20964;-67
2021/05/09 07:48:49;;;;;;;3.10;1.90;;;20.50;58.00;;;;;;5075402;28;20467;-67
2021/05/09 07:51:15;;;;;;;4.13;1.80;;;20.70;57.50;;;;;;5075105;28;20542;-67
2021/05/09 07:53:42;;;;;;;2.53;2.17;;;20.90;56.90;;;;;;5075356;28;20449;-67
2021/05/09 07:56:09;;;;;;;2.33;2.10;;;21.20;56.60;;;;;;5075289;28;20460;-67
2021/05/09 07:58:36;;;;;;;2.17;1.90;;;21.50;55.90;;;;;;5075214;28;20475;-68
2021/05/09 08:01:03;;;;;;;3.00;2.20;;;21.50;55.80;;;;;;5074958;28;20542;-67
2021/05/09 08:03:30;;;;;;;3.00;2.30;;;21.70;55.40;;;;;;5074285;28;20952;-67
2021/05/09 08:05:56;;;;;;;2.83;2.33;;;21.80;55.40;;;;;;5075069;28;20209;-68
2021/05/09 08:08:26;;;;;;;11.20;2.80;;;22.00;55.40;;;;;;5074801;28;20446;-68
2021/05/09 08:10:52;;;;;;;6.50;2.27;;;22.10;55.20;;;;;;5074898;28;20966;-68
2021/05/09 08:13:19;;;;;;;3.93;2.13;;;22.10;54.90;;;;;;5074858;28;20431;-68
2021/05/09 08:15:46;;;;;;;3.63;2.33;;;22.30;55.00;;;;;;5075536;28;20445;-67
2021/05/09 08:18:12;;;;;;;4.40;2.00;;;22.40;54.50;;;;;;5074489;28;21005;-67
2021/05/09 08:20:39;;;;;;;3.27;2.13;;;22.50;53.90;;;;;;5074655;28;20425;-67
2021/05/09 08:23:05;;;;;;;2.67;2.43;;;22.60;53.90;;;;;;5074552;28;20445;-67
2021/05/09 08:25:32;;;;;;;4.87;2.13;;;22.70;53.50;;;;;;5074091;28;20917;-67
2021/05/09 08:27:58;;;;;;;3.23;2.20;;;22.60;53.50;;;;;;5074294;28;20954;-67
2021/05/09 08:30:26;;;;;;;2.73;2.53;;;22.60;53.30;;;;;;5074626;28;20456;-69
2021/05/09 08:32:53;;;;;;;2.97;2.20;;;22.70;53.20;;;;;;5074548;28;20421;-69
2021/05/09 08:35:19;;;;;;;3.73;2.20;;;22.60;52.80;;;;;;5074462;28;20429;-69
2021/05/09 08:37:46;;;;;;;6.53;2.60;;;22.60;53.40;;;;;;5074451;28;20468;-69
2021/05/09 08:40:14;;;;;;;5.90;2.70;;;22.50;53.30;;;;;;5074310;28;20444;-69
2021/05/09 08:42:41;;;;;;;3.57;2.10;;;22.40;53.70;;;;;;5073961;28;20911;-70
2021/05/09 08:45:09;;;;;;;4.00;2.40;;;22.40;53.80;;;;;;5074115;28;20482;-69
2021/05/09 08:47:38;;;;;;;3.03;2.00;;;22.50;53.70;;;;;;5073919;28;20833;-67
2021/05/09 08:50:06;;;;;;;7.50;2.80;;;22.50;53.80;;;;;;5074036;28;20472;-69
2021/05/09 08:52:34;;;;;;;4.47;2.30;;;22.70;53.30;;;;;;5073792;28;20987;-69
2021/05/09 08:55:00;;;;;;;3.77;2.07;;;22.70;53.20;;;;;;5074035;28;20815;-68
2021/05/09 08:57:27;;;;;;;3.47;2.80;;;22.80;53.30;;;;;;5073666;28;20451;-69
2021/05/09 08:59:53;;;;;;;3.03;2.10;;;22.80;53.70;;;;;;5073967;28;20452;-68
2021/05/09 09:02:22;;;;;;;4.67;2.27;;;23.00;53.30;;;;;;5073907;28;20469;-68
2021/05/09 09:04:52;;;;;;;4.57;2.33;;;23.10;53.00;;;;;;5073890;28;20562;-68
2021/05/09 09:07:18;;;;;;;3.90;2.10;;;23.40;53.10;;;;;;5073948;28;20793;-67
2021/05/09 09:09:46;;;;;;;3.23;2.03;;;23.50;51.60;;;;;;5073559;28;21000;-68
2021/05/09 09:12:13;;;;;;;2.30;2.20;;;23.40;51.70;;;;;;5073432;28;20991;-68
2021/05/09 09:14:54;;;;;;;10.90;2.83;;;23.50;52.30;;;;;;5073492;28;20790;-68
2021/05/09 09:17:21;;;;;;;2.93;2.10;;;23.70;51.60;;;;;;5073769;28;20445;-68
2021/05/09 09:20:05;;;;;;;3.90;2.17;;;23.70;51.20;;;;;;5073725;28;20917;-68
2021/05/09 09:23:01;;;;;;;4.80;2.37;;;23.60;51.10;;;;;;5073761;28;20506;-68
2021/05/09 09:25:32;;;;;;;2.13;1.60;;;23.80;51.50;;;;;;5073362;28;20503;-69
2021/05/09 09:27:59;;;;;;;15.83;2.00;;;23.90;51.40;;;;;;5073358;28;20432;-66
2021/05/09 09:30:26;;;;;;;2.80;1.77;;;24.20;51.60;;;;;;5073588;28;20448;-66
2021/05/09 09:33:14;;;;;;;3.60;1.70;;;24.50;50.80;;;;;;5073626;28;20792;-66
2021/05/09 09:35:43;;;;;;;1.67;1.57;;;24.70;50.50;;;;;;5073440;28;20523;-67
2021/05/09 09:38:29;;;;;;;4.43;2.03;;;24.90;48.70;;;;;;5073463;28;20464;-67
2021/05/09 09:41:12;;;;;;;6.43;1.90;;;24.90;48.90;;;;;;5073503;28;20487;-66
2021/05/09 09:43:40;;;;;;;8.20;2.17;;;25.10;48.70;;;;;;5073310;28;20469;-67
2021/05/09 09:46:25;;;;;;;2.67;2.00;;;25.20;47.50;;;;;;5073434;28;20440;-66
2021/05/09 09:48:51;;;;;;;3.80;1.70;;;25.20;47.70;;;;;;5073098;28;20425;-66
2021/05/09 09:51:19;;;;;;;5.83;1.93;;;25.40;48.40;;;;;;5073005;28;20484;-67
2021/05/09 09:53:45;;;;;;;17.67;3.20;;;25.40;46.80;;;;;;5073355;28;20832;-66
2021/05/09 09:56:12;;;;;;;5.90;1.83;;;25.70;47.50;;;;;;5073002;28;20452;-67
2021/05/09 09:58:50;;;;;;;22.80;2.47;;;26.00;47.60;;;;;;5072961;28;20535;-67
2021/05/09 10:01:19;;;;;;;17.80;3.17;;;26.30;45.80;;;;;;5073792;28;20460;-66
2021/05/09 10:03:46;;;;;;;3.80;2.20;;;26.40;45.60;;;;;;5073157;28;20845;-66
2021/05/09 10:06:13;;;;;;;7.60;2.10;;;26.50;45.30;;;;;;5072787;28;20907;-66
2021/05/09 10:08:40;;;;;;;2.97;1.80;;;26.50;45.30;;;;;;5072936;28;20474;-67
2021/05/09 10:11:07;;;;;;;2.60;1.83;;;26.60;45.40;;;;;;5073245;28;20467;-66
2021/05/09 10:13:34;;;;;;;3.43;2.20;;;26.80;44.40;;;;;;5072882;28;20443;-66
2021/05/09 10:16:02;;;;;;;2.40;1.87;;;27.00;44.20;;;;;;5073114;28;20453;-67
2021/05/09 10:18:29;;;;;;;2.63;2.00;;;27.20;44.20;;;;;;5072949;28;20452;-67
2021/05/09 10:20:56;;;;;;;4.07;1.93;;;27.50;42.60;;;;;;5072479;28;20994;-67
2021/05/09 10:23:22;;;;;;;2.10;1.80;;;27.80;43.60;;;;;;5073302;28;20432;-67
2021/05/09 10:25:51;;;;;;;2.67;1.80;;;28.40;41.90;;;;;;5072945;28;20440;-67
2021/05/09 10:28:19;;;;;;;5.50;1.97;;;28.90;40.10;;;;;;5072681;28;20999;-66
2021/05/09 10:30:56;;;;;;;2.20;2.00;;;28.90;38.90;;;;;;5072974;28;20436;-69
2021/05/09 10:33:45;;;;;;;3.13;1.97;;;29.10;39.90;;;;;;5072992;28;20485;-70
2021/05/09 10:36:27;;;;;;;6.17;2.37;;;29.70;38.70;;;;;;5073037;28;20402;-69
2021/05/09 10:39:15;;;;;;;2.43;1.97;;;30.00;38.20;;;;;;5072433;28;20494;-67
2021/05/09 10:42:13;;;;;;;4.63;2.03;;;30.20;37.50;;;;;;5073092;28;20471;-67
2021/05/09 10:44:44;;;;;;;2.07;1.80;;;30.20;37.50;;;;;;5057484;28;20480;-69
2021/05/09 10:47:13;;;;;;;3.70;2.27;;;30.30;36.70;;;;;;5073422;28;20899;-68
2021/05/09 10:50:13;;;;;;;2.67;2.27;;;30.70;36.50;;;;;;5075970;28;20859;-69
2021/05/09 10:52:40;;;;;;;3.40;1.90;;;31.50;34.90;;;;;;5076425;28;20456;-70
2021/05/09 10:55:28;;;;;;;3.50;2.13;;;31.80;34.30;;;;;;5076482;28;20417;-69
2021/05/09 10:57:54;;;;;;;2.47;1.77;;;32.10;33.70;;;;;;5075920;28;20448;-69
2021/05/09 11:00:21;;;;;;;5.63;2.60;;;32.30;33.40;;;;;;5076300;28;20444;-68
2021/05/09 11:02:47;;;;;;;2.70;2.40;;;32.10;33.10;;;;;;5076049;28;20969;-69
2021/05/09 11:05:14;;;;;;;6.20;2.43;;;31.90;34.50;;;;;;5076200;28;20480;-68
2021/05/09 11:07:44;;;;;;;2.90;2.60;;;31.90;33.90;;;;;;5076249;28;20445;-68
2021/05/09 11:10:39;;;;;;;2.93;2.47;;;31.60;35.10;;;;;;5076197;28;20445;-68
2021/05/09 11:13:06;;;;;;;3.67;2.07;;;31.50;35.40;;;;;;5076633;28;20455;-69
2021/05/09 11:15:34;;;;;;;3.13;1.33;;;31.50;33.50;;;;;;5076296;28;20506;-69
2021/05/09 11:18:00;;;;;;;1.70;1.60;;;31.50;32.90;;;;;;5075774;28;20840;-69
2021/05/09 11:20:27;;;;;;;3.43;1.60;;;31.40;33.50;;;;;;5075725;28;20453;-70
2021/05/09 11:22:57;;;;;;;8.70;1.70;;;31.60;32.40;;;;;;5075996;28;20476;-69
2021/05/09 11:25:30;;;;;;;1.80;1.70;;;31.70;31.30;;;;;;5075786;28;20467;-70
2021/05/09 11:27:56;;;;;;;6.63;2.20;;;32.20;31.50;;;;;;5075630;28;21042;-70
2021/05/09 11:30:34;;;;;;;4.13;2.40;;;32.70;29.40;;;;;;5075848;28;20435;-69
2021/05/09 11:33:00;;;;;;;2.83;1.93;;;33.10;28.30;;;;;;5075773;28;20429;-69
2021/05/09 11:35:36;;;;;;;2.57;2.37;;;33.10;27.50;;;;;;5075674;28;20451;-69
2021/05/09 11:38:02;;;;;;;2.57;1.90;;;33.10;27.80;;;;;;5075438;28;20925;-69
2021/05/09 11:40:28;;;;;;;5.40;2.00;;;33.30;27.50;;;;;;5075223;28;20440;-69
2021/05/09 11:42:55;;;;;;;1.77;1.60;;;33.80;27.10;;;;;;5075665;28;20429;-69
2021/05/09 11:45:25;;;;;;;3.27;1.97;;;34.00;26.50;;;;;;5075441;28;20483;-69
2021/05/09 11:47:52;;;;;;;2.67;2.00;;;33.80;26.60;;;;;;5075120;28;20821;-69
2021/05/09 11:50:22;;;;;;;2.20;1.70;;;33.80;26.90;;;;;;5075198;28;20462;-69
2021/05/09 11:52:48;;;;;;;2.10;2.00;;;34.00;27.00;;;;;;5075146;28;20518;-69
2021/05/09 11:55:15;;;;;;;2.27;1.60;;;34.50;26.80;;;;;;5075190;28;20920;-69
2021/05/09 11:57:42;;;;;;;3.53;2.07;;;34.90;26.70;;;;;;5075099;28;20502;-69
2021/05/09 12:00:10;;;;;;;2.77;1.73;;;35.40;25.40;;;;;;5074543;28;20455;-69
2021/05/09 12:02:37;;;;;;;3.10;1.80;;;35.40;24.90;;;;;;5074960;28;20475;-69
2021/05/09 12:05:10;;;;;;;6.27;2.73;;;35.70;25.20;;;;;;5074850;28;20487;-69
2021/05/09 12:07:43;;;;;;;1.97;1.83;;;36.00;24.40;;;;;;5074939;28;20436;-69
2021/05/09 12:10:12;;;;;;;3.03;1.93;;;36.00;24.20;;;;;;5074992;28;20480;-69
2021/05/09 12:12:40;;;;;;;4.30;1.97;;;36.50;24.70;;;;;;5074731;28;20459;-69
2021/05/09 12:15:10;;;;;;;2.83;1.60;;;36.50;24.40;;;;;;5074789;28;20526;-69
2021/05/09 12:17:48;;;;;;;2.10;1.90;;;36.40;24.20;;;;;;5074492;28;20921;-70
2021/05/09 12:20:26;;;;;;;4.40;1.80;;;36.00;24.60;;;;;;5074814;28;20793;-69
2021/05/09 12:22:53;;;;;;;2.90;1.97;;;35.30;25.30;;;;;;5074398;28;20463;-69
2021/05/09 12:25:39;;;;;;;4.00;2.10;;;34.80;26.30;;;;;;5074617;28;20479;-69
2021/05/09 12:28:11;;;;;;;4.13;2.00;;;34.80;26.40;;;;;;5074370;28;20997;-69
2021/05/09 12:30:37;;;;;;;2.70;1.70;;;34.90;26.20;;;;;;5074508;28;20436;-69
2021/05/09 12:33:05;;;;;;;2.73;1.80;;;35.00;25.90;;;;;;5074565;28;20494;-69
2021/05/09 12:35:45;;;;;;;2.43;2.10;;;35.30;26.40;;;;;;5074491;28;20527;-69
2021/05/09 12:38:11;;;;;;;8.10;1.90;;;35.60;25.90;;;;;;5074166;28;20932;-70
2021/05/09 12:40:39;;;;;;;3.30;2.00;;;36.00;24.40;;;;;;5074276;28;20821;-70
2021/05/09 12:43:07;;;;;;;3.43;1.77;;;36.20;24.20;;;;;;5074308;28;20455;-69
2021/05/09 12:45:39;;;;;;;4.90;1.77;;;36.40;23.20;;;;;;5074396;28;20472;-69
2021/05/09 12:48:09;;;;;;;2.27;1.90;;;36.60;23.00;;;;;;5068913;28;20447;-68
2021/05/09 12:51:03;;;;;;;6.43;1.97;;;36.90;23.10;;;;;;5074062;28;21068;-68